createdAt,value
2023-11-10T00:01:31.717Z,5.00
2023-11-10T00:04:01.007Z,2.35
2023-11-10T00:06:29.028Z,2.92
2023-11-10T00:08:57.692Z,2.83
2023-11-10T00:11:27.598Z,4.85
2023-11-10T00:14:07.670Z,3.13
2023-11-10T00:16:40.662Z,4.20
2023-11-10T00:19:09.739Z,4.30
2023-11-10T00:21:37.784Z,2.92
2023-11-10T00:24:06.489Z,2.60
2023-11-10T00:26:35.862Z,2.75
2023-11-10T00:29:03.624Z,2.70
2023-11-10T00:31:31.396Z,4.35
2023-11-10T00:33:59.236Z,2.78
2023-11-10T00:36:28.822Z,2.78
2023-11-10T00:38:56.573Z,3.20
2023-11-10T00:41:24.318Z,3.60
2023-11-10T00:43:52.067Z,2.60
2023-11-10T00:46:19.864Z,4.13
2023-11-10T00:48:47.740Z,4.05
2023-11-10T00:51:15.548Z,3.70
2023-11-10T00:53:44.663Z,2.80
2023-11-10T00:56:12.435Z,2.80
2023-11-10T00:58:40.779Z,4.75
2023-11-10T01:01:08.969Z,3.42
2023-11-10T01:03:37.052Z,3.92
2023-11-10T01:06:06.545Z,3.08
2023-11-10T01:08:34.436Z,3.67
2023-11-10T01:11:03.519Z,3.60
2023-11-10T01:13:31.618Z,3.67
2023-11-10T01:15:59.420Z,3.88
2023-11-10T01:18:27.168Z,2.95
2023-11-10T01:20:55.450Z,4.00
2023-11-10T01:23:23.200Z,3.35
2023-11-10T01:25:50.977Z,3.58
2023-11-10T01:28:21.367Z,3.90
2023-11-10T01:30:49.666Z,2.85
2023-11-10T01:33:17.666Z,3.28
2023-11-10T01:35:45.446Z,3.33
2023-11-10T01:38:13.722Z,3.40
2023-11-10T01:40:41.687Z,3.15
2023-11-10T01:43:09.885Z,3.03
2023-11-10T01:45:39.138Z,3.42
2023-11-10T01:48:08.291Z,3.67
2023-11-10T01:50:36.612Z,3.75
2023-11-10T01:53:04.437Z,3.10
2023-11-10T01:55:32.450Z,3.30
2023-11-10T01:58:00.203Z,4.03
2023-11-10T02:00:31.048Z,3.40
2023-11-10T02:03:02.512Z,3.80
2023-11-10T02:05:30.404Z,3.83
2023-11-10T02:07:58.168Z,3.35
2023-11-10T02:10:25.998Z,3.70
2023-11-10T02:12:54.477Z,3.70
2023-11-10T02:15:22.446Z,3.50
2023-11-10T02:17:50.263Z,3.58
2023-11-10T02:20:19.356Z,3.10
2023-11-10T02:22:48.549Z,2.95
2023-11-10T02:25:17.746Z,2.90
2023-11-10T02:27:45.544Z,3.00
2023-11-10T02:30:13.734Z,2.72
2023-11-10T02:32:44.083Z,3.05
2023-11-10T02:35:12.058Z,2.50
2023-11-10T02:37:41.058Z,2.95
2023-11-10T02:40:10.696Z,2.38
2023-11-10T02:42:40.183Z,2.35
2023-11-10T02:45:09.543Z,2.15
2023-11-10T02:47:37.590Z,2.20
2023-11-10T02:50:06.343Z,2.05
2023-11-10T02:52:34.080Z,2.17
2023-11-10T02:55:02.103Z,2.15
2023-11-10T02:57:29.890Z,2.78
2023-11-10T02:59:59.215Z,2.45
2023-11-10T03:02:27.368Z,1.70
2023-11-10T03:04:55.145Z,1.80
2023-11-10T03:07:23.675Z,1.95
2023-11-10T03:09:51.420Z,1.88
2023-11-10T03:12:19.498Z,1.70
2023-11-10T03:14:49.233Z,1.77
2023-11-10T03:17:18.429Z,1.90
2023-11-10T03:19:46.256Z,1.85
2023-11-10T03:22:15.144Z,2.80
2023-11-10T03:24:43.227Z,2.13
2023-11-10T03:27:11.147Z,1.48
2023-11-10T03:29:38.973Z,1.27
2023-11-10T03:32:07.547Z,1.10
2023-11-10T03:34:41.698Z,2.05
2023-11-10T03:37:10.469Z,1.77
2023-11-10T03:39:38.248Z,1.85
2023-11-10T03:42:06.218Z,0.88
2023-11-10T03:44:34.286Z,1.98
2023-11-10T03:47:02.099Z,1.95
2023-11-10T03:49:29.912Z,1.20
2023-11-10T03:51:59.010Z,1.40
2023-11-10T03:54:27.017Z,1.85
2023-11-10T03:56:54.795Z,1.08
2023-11-10T03:59:21.576Z,0.95
2023-11-10T04:01:49.365Z,1.38
2023-11-10T04:04:17.244Z,1.40
2023-11-10T04:06:45.571Z,1.13
2023-11-10T04:09:15.386Z,1.80
2023-11-10T04:11:43.155Z,2.30
2023-11-10T04:14:12.704Z,1.30
2023-11-10T04:16:40.469Z,1.30
2023-11-10T04:19:08.910Z,1.83
2023-11-10T04:21:36.702Z,1.60
2023-11-10T04:24:04.906Z,3.38
2023-11-10T04:26:34.066Z,1.95
2023-11-10T04:29:01.871Z,1.52
2023-11-10T04:31:30.089Z,2.13
2023-11-10T04:33:58.006Z,2.28
2023-11-10T04:36:25.959Z,1.40
2023-11-10T04:38:53.752Z,1.85
2023-11-10T04:41:23.375Z,1.58
2023-11-10T04:43:52.585Z,2.53
2023-11-10T04:46:20.375Z,1.33
2023-11-10T04:48:48.205Z,1.90
2023-11-10T04:51:16.449Z,1.10
2023-11-10T04:53:44.296Z,2.03
2023-11-10T04:56:12.313Z,1.15
2023-11-10T04:58:40.027Z,1.33
2023-11-10T05:01:09.105Z,2.50
2023-11-10T05:03:38.303Z,1.58
2023-11-10T05:06:07.119Z,1.92
2023-11-10T05:08:35.005Z,1.50
2023-11-10T05:11:03.132Z,1.52
2023-11-10T05:13:30.893Z,1.92
2023-11-10T05:15:58.770Z,1.40
2023-11-10T05:20:59.906Z,2.60
2023-11-10T05:23:27.832Z,2.35
2023-11-10T05:25:55.621Z,1.55
2023-11-10T05:28:23.385Z,1.42
2023-11-10T05:30:51.257Z,1.67
2023-11-10T05:33:19.082Z,1.83
2023-11-10T05:35:48.470Z,2.25
2023-11-10T05:38:16.516Z,2.05
2023-11-10T05:40:44.361Z,2.22
2023-11-10T05:43:12.094Z,2.28
2023-11-10T05:45:39.890Z,2.47
2023-11-10T05:48:07.739Z,1.90
2023-11-10T05:50:35.616Z,3.08
2023-11-10T05:53:04.659Z,1.95
2023-11-10T05:55:33.753Z,2.17
2023-11-10T05:58:01.691Z,1.63
2023-11-10T06:00:29.477Z,1.70
2023-11-10T06:02:58.215Z,2.15
2023-11-10T06:05:26.986Z,2.35
2023-11-10T06:07:55.498Z,2.17
2023-11-10T06:10:24.605Z,1.50
2023-11-10T06:12:52.530Z,1.60
2023-11-10T06:15:24.419Z,2.05
2023-11-10T06:17:53.193Z,1.85
2023-11-10T06:20:21.580Z,1.40
2023-11-10T06:22:49.448Z,2.08
2023-11-10T06:25:17.542Z,1.83
2023-11-10T06:27:46.768Z,1.65
2023-11-10T06:30:15.953Z,2.10
2023-11-10T06:32:44.160Z,3.35
2023-11-10T06:35:11.991Z,1.85
2023-11-10T06:37:39.721Z,1.20
2023-11-10T06:40:10.947Z,2.53
2023-11-10T06:42:38.713Z,2.85
2023-11-10T06:45:09.335Z,2.38
2023-11-10T06:47:37.383Z,2.42
2023-11-10T06:50:06.191Z,2.22
2023-11-10T06:52:33.951Z,1.35
2023-11-10T06:55:01.806Z,2.80
2023-11-10T06:57:29.653Z,2.42
2023-11-10T06:59:57.410Z,2.58
2023-11-10T07:02:27.356Z,2.75
2023-11-10T07:04:55.103Z,1.85
2023-11-10T07:07:22.889Z,2.85
2023-11-10T07:09:50.669Z,2.55
2023-11-10T07:12:18.945Z,2.97
2023-11-10T07:14:46.833Z,3.25
2023-11-10T07:17:16.715Z,2.33
2023-11-10T07:19:46.617Z,2.17
2023-11-10T07:22:14.377Z,2.65
2023-11-10T07:24:42.253Z,1.70
2023-11-10T07:27:10.746Z,2.03
2023-11-10T07:29:38.599Z,2.45
2023-11-10T07:32:06.673Z,3.15
2023-11-10T07:34:34.459Z,1.92
2023-11-10T07:37:03.737Z,2.88
2023-11-10T07:39:31.736Z,1.85
2023-11-10T07:42:00.726Z,1.80
2023-11-10T07:44:28.480Z,1.92
2023-11-10T07:46:56.315Z,2.10
2023-11-10T07:49:24.091Z,3.22
2023-11-10T07:51:54.950Z,2.33
2023-11-10T07:54:24.509Z,2.83
2023-11-10T07:56:52.346Z,1.85
2023-11-10T07:59:20.317Z,1.73
2023-11-10T08:01:48.063Z,2.88
2023-11-10T08:04:16.412Z,1.88
2023-11-10T08:06:45.288Z,2.20
2023-11-10T08:09:15.201Z,1.63
2023-11-10T08:11:52.446Z,2.28
2023-11-10T08:14:23.074Z,1.85
2023-11-10T08:16:50.983Z,2.35
2023-11-10T08:19:19.780Z,1.48
2023-11-10T08:21:47.626Z,1.90
2023-11-10T08:24:15.455Z,1.55
2023-11-10T08:26:44.632Z,3.28
2023-11-10T08:29:12.419Z,2.22
2023-11-10T08:31:40.620Z,1.45
2023-11-10T08:34:08.774Z,1.70
2023-11-10T08:36:36.669Z,2.90
2023-11-10T08:39:04.521Z,2.40
2023-11-10T08:41:32.379Z,1.33
2023-11-10T08:44:03.262Z,1.60
2023-11-10T08:46:31.419Z,2.03
2023-11-10T08:48:59.264Z,2.88
2023-11-10T08:51:27.103Z,1.70
2023-11-10T08:53:54.881Z,1.70
2023-11-10T08:56:23.474Z,0.90
2023-11-10T08:58:51.282Z,3.25
2023-11-10T09:01:20.534Z,2.53
2023-11-10T09:03:48.481Z,1.73
2023-11-10T09:06:16.695Z,2.85
2023-11-10T09:08:44.448Z,1.67
2023-11-10T09:11:12.239Z,2.20
2023-11-10T09:13:40.651Z,2.03
2023-11-10T09:16:08.922Z,2.65
2023-11-10T09:18:38.295Z,1.63
2023-11-10T09:21:08.350Z,1.40
2023-11-10T09:23:36.179Z,2.83
2023-11-10T09:26:03.421Z,1.48
2023-11-10T09:28:32.975Z,3.97
2023-11-10T09:31:00.898Z,3.70
2023-11-10T09:33:28.770Z,2.13
2023-11-10T09:35:59.626Z,1.80
2023-11-10T09:38:27.380Z,1.80
2023-11-10T09:40:55.123Z,2.20
2023-11-10T09:43:24.634Z,1.88
2023-11-10T09:45:52.649Z,2.30
2023-11-10T09:48:20.851Z,1.95
2023-11-10T09:50:48.871Z,2.35
2023-11-10T09:53:18.946Z,2.65
2023-11-10T09:55:47.058Z,1.95
2023-11-10T09:58:15.799Z,2.10
2023-11-10T10:00:44.506Z,2.80
2023-11-10T10:03:14.309Z,1.75
2023-11-10T10:05:42.200Z,2.60
2023-11-10T10:08:09.947Z,1.27
2023-11-10T10:10:40.680Z,1.92
2023-11-10T10:13:09.056Z,1.70
2023-11-10T10:15:39.219Z,2.25
2023-11-10T10:18:07.638Z,2.63
2023-11-10T10:20:38.660Z,1.80
2023-11-10T10:23:07.727Z,2.00
2023-11-10T10:25:36.319Z,2.92
2023-11-10T10:28:05.938Z,2.70
2023-11-10T10:30:34.214Z,2.28
2023-11-10T10:33:02.227Z,2.58
2023-11-10T10:35:30.121Z,1.63
2023-11-10T10:37:59.742Z,1.92
2023-11-10T10:40:27.506Z,1.83
2023-11-10T10:42:55.397Z,3.15
2023-11-10T10:45:27.534Z,1.83
2023-11-10T10:48:00.390Z,2.15
2023-11-10T10:50:28.393Z,2.40
2023-11-10T10:52:57.012Z,3.30
2023-11-10T10:55:26.650Z,1.77
2023-11-10T10:57:55.203Z,3.13
2023-11-10T11:00:24.907Z,2.15
2023-11-10T11:02:57.493Z,1.80
2023-11-10T11:05:36.022Z,1.98
2023-11-10T11:08:17.136Z,1.88
2023-11-10T11:10:55.070Z,2.30
2023-11-10T11:13:52.121Z,2.72
2023-11-10T11:16:57.159Z,3.22
2023-11-10T11:19:26.799Z,2.38
2023-11-10T11:21:54.802Z,2.92
2023-11-10T11:24:23.427Z,1.80
2023-11-10T11:26:57.042Z,2.17
2023-11-10T11:29:26.576Z,1.40
2023-11-10T11:31:55.764Z,2.47
2023-11-10T11:34:23.515Z,2.42
2023-11-10T11:36:51.388Z,2.50
2023-11-10T11:39:21.102Z,2.65
2023-11-10T11:41:50.579Z,2.38
2023-11-10T11:44:27.568Z,1.52
2023-11-10T11:46:58.164Z,1.92
2023-11-10T11:49:26.848Z,2.85
2023-11-10T11:51:55.502Z,13.40
2023-11-10T11:54:26.592Z,1.73
2023-11-10T11:56:55.033Z,1.63
2023-11-10T11:59:22.815Z,2.67
2023-11-10T12:01:50.864Z,2.25
2023-11-10T12:04:20.054Z,2.70
2023-11-10T12:06:48.826Z,2.58
2023-11-10T12:09:16.721Z,1.65
2023-11-10T12:11:45.907Z,2.65
2023-11-10T12:14:15.007Z,3.40
2023-11-10T12:16:44.502Z,2.33
2023-11-10T12:19:13.780Z,1.50
2023-11-10T12:21:44.733Z,1.80
2023-11-10T12:24:12.663Z,1.70
2023-11-10T12:26:41.235Z,5.75
2023-11-10T12:29:09.469Z,2.78
2023-11-10T12:31:37.588Z,3.85
2023-11-10T12:34:06.065Z,3.58
2023-11-10T12:36:35.144Z,8.07
2023-11-10T12:39:07.792Z,4.05
2023-11-10T12:41:36.362Z,8.00
2023-11-10T12:44:04.502Z,13.52
2023-11-10T12:46:32.323Z,9.68
2023-11-10T12:49:00.145Z,23.70
2023-11-10T12:51:31.838Z,15.63
2023-11-10T12:54:07.984Z,10.32
2023-11-10T12:56:36.539Z,13.52
2023-11-10T12:59:05.590Z,16.23
2023-11-10T13:01:33.487Z,23.35
2023-11-10T13:04:01.396Z,16.38
2023-11-10T13:06:30.256Z,11.00
2023-11-10T13:08:58.143Z,16.42
2023-11-10T13:11:27.598Z,13.85
2023-11-10T13:13:55.380Z,17.08
2023-11-10T13:16:23.915Z,22.17
2023-11-10T13:18:53.323Z,18.60
2023-11-10T13:21:21.659Z,14.98
2023-11-10T13:23:50.204Z,13.52
2023-11-10T13:26:23.096Z,13.30
2023-11-10T13:28:54.209Z,18.75
2023-11-10T13:31:27.875Z,19.33
2023-11-10T13:33:56.411Z,15.25
2023-11-10T13:36:24.261Z,14.93
2023-11-10T13:38:53.428Z,28.13
2023-11-10T13:41:25.556Z,21.17
2023-11-10T13:43:58.793Z,26.77
2023-11-10T13:46:26.708Z,24.13
2023-11-10T13:48:56.994Z,20.63
2023-11-10T13:51:24.866Z,24.38
2023-11-10T13:53:54.715Z,26.35
2023-11-10T13:56:22.521Z,29.33
2023-11-10T13:58:52.848Z,23.85
2023-11-10T14:01:22.195Z,15.93
2023-11-10T14:03:50.290Z,19.40
2023-11-10T14:06:18.244Z,21.33
2023-11-10T14:08:46.020Z,17.05
2023-11-10T14:11:14.262Z,16.45
2023-11-10T14:13:44.390Z,15.80
2023-11-10T14:16:12.530Z,15.57
2023-11-10T14:18:44.019Z,20.70
2023-11-10T14:21:11.910Z,15.90
2023-11-10T14:23:39.699Z,14.65
2023-11-10T14:26:07.763Z,15.85
2023-11-10T14:28:35.996Z,46.17
2023-11-10T14:31:04.067Z,29.83
2023-11-10T14:33:31.939Z,28.48
2023-11-10T14:36:02.843Z,44.38
2023-11-10T14:38:41.163Z,19.75
2023-11-10T14:41:12.378Z,22.27
2023-11-10T14:43:40.801Z,17.27
2023-11-10T14:46:09.811Z,42.33
2023-11-10T14:48:41.868Z,54.42
2023-11-10T14:51:10.986Z,32.15
2023-11-10T14:53:39.422Z,23.23
2023-11-10T14:56:08.382Z,39.70
2023-11-10T14:58:36.175Z,40.00
2023-11-10T15:01:04.272Z,38.38
2023-11-10T15:03:32.137Z,33.83
2023-11-10T15:05:59.949Z,30.80
2023-11-10T15:08:29.059Z,23.08
2023-11-10T15:10:57.255Z,30.33
2023-11-10T15:13:25.009Z,23.90
2023-11-10T15:15:53.712Z,23.67
2023-11-10T15:18:23.958Z,32.17
2023-11-10T15:20:52.185Z,10.98
2023-11-10T15:23:20.605Z,4.95
2023-11-10T15:25:51.311Z,8.00
2023-11-10T15:28:19.144Z,6.13
2023-11-10T15:30:47.078Z,11.27
2023-11-10T15:33:17.891Z,14.20
2023-11-10T15:35:47.684Z,34.25
2023-11-10T15:38:16.254Z,21.70
2023-11-10T15:40:45.831Z,23.45
2023-11-10T15:43:15.015Z,12.63
2023-11-10T15:45:42.839Z,42.05
2023-11-10T15:48:10.736Z,36.88
2023-11-10T15:50:38.575Z,31.60
2023-11-10T15:53:06.525Z,18.48
2023-11-10T15:55:34.309Z,20.17
2023-11-10T15:58:02.129Z,24.30
2023-11-10T16:00:31.313Z,30.52
2023-11-10T16:02:59.387Z,20.52
2023-11-10T16:05:27.452Z,27.20
2023-11-10T16:07:55.271Z,35.40
2023-11-10T16:10:24.938Z,33.72
2023-11-10T16:12:53.902Z,39.65
2023-11-10T16:15:22.240Z,41.90
2023-11-10T16:17:51.416Z,41.05
2023-11-10T16:20:20.708Z,58.00
2023-11-10T16:22:48.582Z,41.30
2023-11-10T16:25:16.625Z,64.65
2023-11-10T16:27:44.865Z,55.83
2023-11-10T16:30:13.642Z,47.22
2023-11-10T16:32:41.493Z,65.07
2023-11-10T16:35:11.093Z,45.33
2023-11-10T16:37:40.383Z,33.63
2023-11-10T16:40:11.429Z,31.13
2023-11-10T16:42:39.275Z,50.15
2023-11-10T16:45:08.513Z,42.95
2023-11-10T16:47:36.711Z,63.60
2023-11-10T16:50:04.562Z,30.25
2023-11-10T16:52:33.657Z,26.73
2023-11-10T16:55:01.499Z,34.42
2023-11-10T16:57:31.822Z,30.90
2023-11-10T17:00:01.288Z,30.88
2023-11-10T17:02:35.388Z,50.65
2023-11-10T17:05:13.223Z,46.63
2023-11-10T17:07:42.340Z,54.45
2023-11-10T17:10:12.065Z,63.58
2023-11-10T17:12:41.438Z,53.00
2023-11-10T17:15:11.899Z,81.30
2023-11-10T17:17:40.778Z,50.17
2023-11-10T17:20:10.307Z,67.90
2023-11-10T17:22:38.309Z,47.08
2023-11-10T17:25:08.554Z,46.38
2023-11-10T17:27:36.411Z,42.17
2023-11-10T17:30:04.448Z,46.65
2023-11-10T17:32:32.236Z,40.53
2023-11-10T17:35:00.021Z,35.40
2023-11-10T17:37:28.142Z,33.38
2023-11-10T17:39:55.930Z,43.22
2023-11-10T17:42:26.416Z,39.55
2023-11-10T17:44:54.183Z,31.20
2023-11-10T17:47:21.947Z,30.80
2023-11-10T17:49:49.685Z,29.05
2023-11-10T17:52:17.451Z,35.25
2023-11-10T17:54:45.624Z,34.90
2023-11-10T17:57:13.426Z,26.80
2023-11-10T17:59:42.503Z,34.53
2023-11-10T18:02:10.287Z,38.65
2023-11-10T18:04:46.472Z,29.40
2023-11-10T18:07:19.764Z,22.17
2023-11-10T18:09:47.573Z,27.95
2023-11-10T18:12:16.490Z,26.60
2023-11-10T18:14:47.642Z,40.63
2023-11-10T18:17:15.470Z,32.58
2023-11-10T18:24:09.987Z,27.00
2023-11-10T18:26:38.347Z,35.15
2023-11-10T18:29:09.235Z,29.48
2023-11-10T18:31:38.459Z,30.83
2023-11-10T18:34:07.788Z,41.33
2023-11-10T18:36:35.570Z,30.13
2023-11-10T18:39:03.416Z,38.13
2023-11-10T18:41:31.221Z,30.58
2023-11-10T18:43:59.002Z,34.03
2023-11-10T18:46:26.827Z,32.92
2023-11-10T18:48:56.098Z,31.00
2023-11-10T18:51:23.919Z,28.25
2023-11-10T18:53:51.630Z,27.65
2023-11-10T18:56:19.424Z,26.95
2023-11-10T18:58:47.196Z,28.27
2023-11-10T19:01:15.033Z,20.48
2023-11-10T19:03:42.947Z,21.33
2023-11-10T19:06:12.598Z,21.08
2023-11-10T19:08:40.385Z,24.42
2023-11-10T19:11:08.520Z,20.13
2023-11-10T19:13:36.473Z,19.45
2023-11-10T19:16:04.390Z,23.23
2023-11-10T19:18:32.271Z,23.67
2023-11-10T19:21:00.076Z,26.10
2023-11-10T19:23:29.337Z,20.15
2023-11-10T19:25:57.096Z,19.92
2023-11-10T19:28:25.266Z,23.08
2023-11-10T19:30:53.194Z,11.82
2023-11-10T19:33:21.040Z,15.70
2023-11-10T19:35:48.950Z,17.33
2023-11-10T19:38:16.783Z,11.52
2023-11-10T19:40:46.047Z,11.25
2023-11-10T19:43:14.607Z,12.18
2023-11-10T19:45:42.605Z,12.95
2023-11-10T19:48:10.401Z,10.85
2023-11-10T19:50:38.175Z,11.68
2023-11-10T19:53:06.003Z,10.52
2023-11-10T19:55:39.572Z,10.00
2023-11-10T20:03:10.593Z,12.07
2023-11-10T20:05:38.518Z,9.13
2023-11-10T20:08:06.857Z,11.57
2023-11-10T20:10:34.618Z,9.98
2023-11-10T20:13:04.191Z,12.82
2023-11-10T20:15:33.312Z,10.95
2023-11-10T20:18:01.164Z,10.57
2023-11-10T20:20:29.284Z,8.30
2023-11-10T20:22:57.184Z,8.55
2023-11-10T20:25:25.284Z,9.63
2023-11-10T20:27:53.689Z,8.55
2023-11-10T20:30:21.579Z,8.32
2023-11-10T20:32:50.721Z,10.30
2023-11-10T20:35:18.542Z,5.70
2023-11-10T20:37:46.293Z,7.80
2023-11-10T20:40:16.233Z,7.32
2023-11-10T20:42:44.037Z,8.60
2023-11-10T20:45:13.480Z,6.55
2023-11-10T20:47:41.356Z,6.40
2023-11-10T20:50:11.867Z,5.78
2023-11-10T20:52:40.464Z,11.02
2023-11-10T20:55:09.834Z,6.53
2023-11-10T20:57:38.988Z,5.53
2023-11-10T21:00:10.595Z,6.97
2023-11-10T21:02:38.881Z,5.63
2023-11-10T21:05:10.234Z,5.07
2023-11-10T21:07:39.454Z,7.78
2023-11-10T21:10:08.218Z,5.75
2023-11-10T21:12:41.497Z,5.35
2023-11-10T21:15:12.140Z,4.72
2023-11-10T21:17:39.978Z,5.70
2023-11-10T21:20:10.090Z,4.25
2023-11-10T21:22:39.293Z,5.25
2023-11-10T21:25:07.663Z,7.40
2023-11-10T21:27:37.186Z,6.53
2023-11-10T21:30:05.885Z,5.70
2023-11-10T21:32:34.103Z,6.25
2023-11-10T21:35:05.250Z,6.07
2023-11-10T21:37:33.288Z,4.95
2023-11-10T21:40:02.418Z,4.22
2023-11-10T21:42:30.300Z,6.30
2023-11-10T21:44:58.068Z,6.45
2023-11-10T21:47:25.940Z,4.43
2023-11-10T21:49:53.714Z,4.93
2023-11-10T21:52:21.501Z,4.68
2023-11-10T21:54:49.310Z,5.40
2023-11-10T21:57:18.452Z,5.93
2023-11-10T21:59:46.271Z,3.67
2023-11-10T22:02:14.348Z,4.32
2023-11-10T22:04:44.420Z,4.88
2023-11-10T22:07:12.234Z,4.65
2023-11-10T22:09:40.006Z,5.57
2023-11-10T22:12:10.741Z,5.18
2023-11-10T22:14:40.252Z,4.07
2023-11-10T22:17:08.236Z,4.70
2023-11-10T22:19:36.345Z,5.15
2023-11-10T22:22:04.651Z,5.22
2023-11-10T22:24:32.430Z,3.47
2023-11-10T22:27:00.300Z,5.25
2023-11-10T22:29:28.367Z,4.30
2023-11-10T22:31:58.167Z,5.10
2023-11-10T22:34:25.900Z,4.68
2023-11-10T22:36:53.661Z,4.32
2023-11-10T22:39:21.425Z,5.95
2023-11-10T22:41:49.226Z,2.97
2023-11-10T22:44:17.628Z,3.92
2023-11-10T22:46:45.430Z,2.60
2023-11-10T22:49:16.879Z,3.40
2023-11-10T22:51:44.686Z,3.55
2023-11-10T22:54:13.645Z,4.00
2023-11-10T22:56:41.408Z,3.55
2023-11-10T22:59:09.226Z,3.72
2023-11-10T23:01:36.983Z,3.22
2023-11-10T23:04:07.012Z,3.75
2023-11-10T23:06:36.250Z,2.40
2023-11-10T23:09:04.137Z,2.85
2023-11-10T23:11:32.115Z,3.42
2023-11-10T23:14:01.334Z,2.83
2023-11-10T23:16:30.042Z,3.65
2023-11-10T23:18:59.451Z,2.60
2023-11-10T23:21:28.162Z,3.30
2023-11-10T23:23:57.331Z,2.63
2023-11-10T23:26:25.093Z,3.50
2023-11-10T23:28:52.942Z,3.10
2023-11-10T23:31:21.052Z,3.30
2023-11-10T23:33:48.856Z,2.85
2023-11-10T23:36:17.317Z,2.67
2023-11-10T23:38:45.130Z,2.92
2023-11-10T23:41:14.246Z,2.58
2023-11-10T23:43:42.013Z,3.25
2023-11-10T23:46:09.806Z,5.07
2023-11-10T23:48:37.688Z,3.08
2023-11-10T23:51:05.947Z,3.33
2023-11-10T23:53:33.726Z,2.92
2023-11-10T23:56:11.347Z,3.80
2023-11-10T23:58:44.251Z,3.60
